createdAt,value
2022-12-23T00:01:58.516Z,96287.63
2022-12-23T00:04:45.526Z,96283.81
2022-12-23T00:07:32.704Z,96257.47
2022-12-23T00:10:19.504Z,96269.31
2022-12-23T00:13:26.146Z,96265.47
2022-12-23T00:16:14.661Z,96255.28
2022-12-23T00:19:08.947Z,96236.47
2022-12-23T00:21:55.792Z,96240.22
2022-12-23T00:24:48.860Z,96223.25
2022-12-23T00:27:38.528Z,96227.16
2022-12-23T00:30:25.357Z,96227.72
2022-12-23T00:33:13.148Z,96213.88
2022-12-23T00:36:10.703Z,96225.53
2022-12-23T00:39:17.154Z,96217.78
2022-12-23T00:42:22.535Z,96234.47
2022-12-23T00:45:18.142Z,96214.88
2022-12-23T00:48:26.726Z,96220.59
2022-12-23T00:51:13.694Z,96213.03
2022-12-23T00:54:00.932Z,96225.09
2022-12-23T00:56:47.753Z,96220.59
2022-12-23T00:59:38.534Z,96212.06
2022-12-23T01:02:44.233Z,96220.59
2022-12-23T01:05:36.910Z,96213.69
2022-12-23T01:08:26.875Z,96210.22
2022-12-23T01:11:13.806Z,96208.75
2022-12-23T01:14:03.815Z,96211.78
2022-12-23T01:16:50.654Z,96211.25
2022-12-23T01:19:37.683Z,96198.75
2022-12-23T01:22:24.515Z,96207.50
2022-12-23T01:25:11.448Z,96212.22
2022-12-23T01:28:00.368Z,96213.44
2022-12-23T01:30:47.207Z,96208.97
2022-12-23T01:33:34.053Z,96206.50
2022-12-23T01:36:22.078Z,96208.16
2022-12-23T01:39:08.992Z,96205.50
2022-12-23T01:42:14.379Z,96205.50
2022-12-23T01:45:05.255Z,96206.31
2022-12-23T01:47:57.817Z,96203.69
2022-12-23T01:50:45.269Z,96207.31
2022-12-23T01:53:37.575Z,96208.16
2022-12-23T01:56:36.791Z,96202.00
2022-12-23T01:59:55.075Z,96198.38
2022-12-23T02:03:01.301Z,96197.13
2022-12-23T02:05:48.379Z,96203.41
2022-12-23T02:08:53.803Z,96198.13
2022-12-23T02:12:07.807Z,96202.41
2022-12-23T02:15:51.320Z,96208.69
2022-12-23T02:19:10.513Z,96215.00
2022-12-23T02:22:09.183Z,96205.22
2022-12-23T02:25:25.351Z,96200.16
2022-12-23T02:28:40.933Z,96201.13
2022-12-23T02:31:46.267Z,96195.66
2022-12-23T02:34:51.381Z,96208.09
2022-12-23T02:37:56.997Z,96217.00
2022-12-23T02:40:54.333Z,96222.50
2022-12-23T02:44:27.795Z,96214.34
2022-12-23T02:47:22.554Z,96187.22
2022-12-23T02:50:14.594Z,96191.13
2022-12-23T02:53:09.141Z,96203.97
2022-12-23T02:55:56.440Z,96192.94
2022-12-23T02:58:49.179Z,96196.84
2022-12-23T03:01:36.821Z,96188.09
2022-12-23T03:04:23.912Z,96193.41
2022-12-23T03:07:35.759Z,96185.25
2022-12-23T03:10:40.557Z,96180.38
2022-12-23T03:13:38.692Z,96185.66
2022-12-23T03:16:50.159Z,96186.47
2022-12-23T03:19:44.790Z,96179.56
2022-12-23T03:22:50.574Z,96177.72
2022-12-23T03:26:00.837Z,96182.38
2022-12-23T03:29:02.149Z,96174.06
2022-12-23T03:31:49.834Z,96168.78
2022-12-23T03:34:43.239Z,96167.53
2022-12-23T03:41:35.005Z,96169.72
2022-12-23T03:49:29.132Z,96165.44
2022-12-23T04:01:26.553Z,96183.19
2022-12-23T04:09:05.506Z,96195.34
2022-12-23T04:20:29.731Z,96180.66
2022-12-23T04:35:00.300Z,96191.06
2022-12-23T04:37:48.448Z,96200.81
2022-12-23T04:40:35.265Z,96197.63
2022-12-23T04:43:24.301Z,96194.34
2022-12-23T04:46:12.471Z,96201.91
2022-12-23T04:48:59.343Z,96200.28
2022-12-23T04:51:46.181Z,96208.66
2022-12-23T04:54:38.131Z,96206.00
2022-12-23T04:57:29.743Z,96203.53
2022-12-23T05:00:16.889Z,96203.97
2022-12-23T05:03:03.933Z,96199.88
2022-12-23T05:05:50.982Z,96194.78
2022-12-23T05:08:37.910Z,96198.69
2022-12-23T05:11:24.697Z,96197.44
2022-12-23T05:14:12.203Z,96198.69
2022-12-23T05:17:05.258Z,96199.50
2022-12-23T05:19:54.073Z,96199.34
2022-12-23T05:22:43.948Z,96208.44
2022-12-23T05:25:33.442Z,96217.84
2022-12-23T05:28:21.921Z,96209.47
2022-12-23T05:31:08.872Z,96213.94
2022-12-23T05:33:58.359Z,96215.19
2022-12-23T05:36:47.840Z,96222.28
2022-12-23T05:39:37.277Z,96218.22
2022-12-23T05:42:36.040Z,96221.03
2022-12-23T05:45:23.146Z,96223.69
2022-12-23T05:48:10.638Z,96218.38
2022-12-23T05:50:57.489Z,96235.50
2022-12-23T05:53:50.436Z,96226.97
2022-12-23T05:56:40.670Z,96239.16
2022-12-23T05:59:31.318Z,96231.44
2022-12-23T06:02:18.856Z,96236.53
2022-12-23T06:05:06.439Z,96244.28
2022-12-23T06:08:02.241Z,96246.94
2022-12-23T06:10:49.137Z,96243.44
2022-12-23T06:13:35.925Z,96233.28
2022-12-23T06:16:22.897Z,96248.75
2022-12-23T06:19:12.314Z,96243.66
2022-12-23T06:21:59.208Z,96253.03
2022-12-23T06:24:49.401Z,96259.97
2022-12-23T06:27:36.212Z,96256.31
2022-12-23T06:30:34.406Z,96254.03
2022-12-23T06:33:21.944Z,96266.63
2022-12-23T06:36:08.971Z,96273.38
2022-12-23T06:38:55.787Z,96288.41
2022-12-23T06:41:45.844Z,96295.53
2022-12-23T06:44:32.703Z,96299.44
2022-12-23T06:47:19.537Z,96305.75
2022-12-23T06:50:09.331Z,96307.22
2022-12-23T06:52:58.022Z,96308.22
2022-12-23T06:55:47.115Z,96311.22
2022-12-23T06:58:33.945Z,96310.22
2022-12-23T07:01:20.899Z,96305.75
2022-12-23T07:04:07.748Z,96309.03
2022-12-23T07:06:57.988Z,96300.44
2022-12-23T07:09:47.304Z,96303.09
2022-12-23T07:12:34.140Z,96316.97
2022-12-23T07:15:20.911Z,96311.03
2022-12-23T07:18:08.902Z,96329.38
2022-12-23T07:21:00.801Z,96337.31
2022-12-23T07:23:48.008Z,96333.81
2022-12-23T07:26:34.836Z,96338.13
2022-12-23T07:29:21.610Z,96352.16
2022-12-23T07:32:10.794Z,96347.91
2022-12-23T07:34:57.542Z,96356.44
2022-12-23T07:37:46.134Z,96345.63
2022-12-23T07:40:32.930Z,96365.56
2022-12-23T07:43:19.698Z,96354.38
2022-12-23T07:46:08.186Z,96365.41
2022-12-23T07:49:00.435Z,96372.50
2022-12-23T07:51:47.341Z,96370.03
2022-12-23T07:54:34.182Z,96376.13
2022-12-23T07:57:20.946Z,96381.44
2022-12-23T08:03:11.651Z,96376.53
2022-12-23T08:06:06.952Z,96384.72
2022-12-23T08:08:55.740Z,96383.91
2022-12-23T08:11:42.510Z,96390.84
2022-12-23T08:14:29.287Z,96382.09
2022-12-23T08:17:16.136Z,96384.38
2022-12-23T08:20:03.057Z,96381.72
2022-12-23T08:22:49.918Z,96388.84
2022-12-23T08:25:36.728Z,96381.53
2022-12-23T08:28:23.558Z,96386.19
2022-12-23T08:31:18.820Z,96390.47
2022-12-23T08:34:05.731Z,96381.53
2022-12-23T08:36:52.594Z,96377.25
2022-12-23T08:39:39.395Z,96386.66
2022-12-23T08:42:26.178Z,96384.16
2022-12-23T08:45:12.973Z,96380.53
2022-12-23T08:47:59.737Z,96379.69
2022-12-23T08:50:46.996Z,96391.13
2022-12-23T08:53:35.064Z,96400.69
2022-12-23T08:56:23.190Z,96402.53
2022-12-23T08:59:19.148Z,96419.00
2022-12-23T09:02:06.727Z,96426.78
2022-12-23T09:04:56.559Z,96431.25
2022-12-23T09:07:43.361Z,96444.75
2022-12-23T09:10:30.157Z,96442.56
2022-12-23T09:13:26.380Z,96450.75
2022-12-23T09:16:17.935Z,96448.56
2022-12-23T09:19:04.960Z,96447.38
2022-12-23T09:21:51.699Z,96444.16
2022-12-23T09:24:40.035Z,96445.44
2022-12-23T09:27:26.944Z,96441.59
2022-12-23T09:30:21.718Z,96440.22
2022-12-23T09:33:09.042Z,96441.69
2022-12-23T09:35:59.817Z,96435.22
2022-12-23T09:38:46.959Z,96433.03
2022-12-23T09:41:50.545Z,96421.22
2022-12-23T09:45:03.891Z,96421.66
2022-12-23T09:47:51.777Z,96432.69
2022-12-23T09:50:41.904Z,96431.31
2022-12-23T09:53:56.747Z,96435.44
2022-12-23T09:57:02.501Z,96429.97
2022-12-23T10:00:04.259Z,96426.91
2022-12-23T10:03:00.643Z,96424.91
2022-12-23T10:06:00.344Z,96427.34
2022-12-23T10:08:49.229Z,96434.31
2022-12-23T10:11:40.102Z,96427.19
2022-12-23T10:14:29.891Z,96423.53
2022-12-23T10:17:26.127Z,96430.28
2022-12-23T10:20:31.946Z,96424.97
2022-12-23T10:23:28.351Z,96428.44
2022-12-23T10:26:29.549Z,96419.50
2022-12-23T10:29:19.723Z,96422.78
2022-12-23T10:32:51.474Z,96418.31
2022-12-23T10:36:01.673Z,96410.34
2022-12-23T10:38:57.162Z,96429.13
2022-12-23T10:42:08.368Z,96427.31
2022-12-23T10:45:06.988Z,96411.38
2022-12-23T10:48:25.683Z,96409.16
2022-12-23T10:51:32.912Z,96406.75
2022-12-23T10:54:27.193Z,96405.13
2022-12-23T10:57:15.986Z,96408.81
2022-12-23T11:00:14.563Z,96395.97
2022-12-23T11:03:14.435Z,96387.47
2022-12-23T11:06:01.906Z,96381.53
2022-12-23T11:08:51.436Z,96403.34
2022-12-23T11:11:54.561Z,96389.72
2022-12-23T11:14:53.802Z,96398.28
2022-12-23T11:17:40.927Z,96401.59
2022-12-23T11:20:29.221Z,96398.13
2022-12-23T11:23:28.191Z,96394.28
2022-12-23T11:26:19.580Z,96398.75
2022-12-23T11:29:11.450Z,96388.00
2022-12-23T11:31:58.294Z,96386.78
2022-12-23T11:34:46.175Z,96385.78
2022-12-23T11:37:37.756Z,96377.63
2022-12-23T11:40:29.055Z,96372.97
2022-12-23T11:43:16.557Z,96375.63
2022-12-23T11:46:27.547Z,96369.31
2022-12-23T11:49:23.581Z,96367.91
2022-12-23T11:52:17.986Z,96369.53
2022-12-23T11:55:07.210Z,96364.22
2022-12-23T11:57:54.064Z,96362.41
2022-12-23T12:00:42.887Z,96361.19
2022-12-23T12:03:35.809Z,96356.53
2022-12-23T12:06:22.916Z,96348.38
2022-12-23T12:09:14.678Z,96355.31
2022-12-23T12:12:07.470Z,96367.38
2022-12-23T12:14:58.544Z,96360.25
2022-12-23T12:17:48.512Z,96356.56
2022-12-23T12:20:47.177Z,96346.59
2022-12-23T12:23:45.247Z,96344.75
2022-12-23T12:26:35.004Z,96344.75
2022-12-23T12:29:31.036Z,96352.34
2022-12-23T12:32:33.258Z,96350.50
2022-12-23T12:35:26.852Z,96340.09
2022-12-23T12:38:20.421Z,96333.41
2022-12-23T12:41:14.924Z,96332.38
2022-12-23T12:44:26.783Z,96316.69
2022-12-23T12:47:44.547Z,96315.44
2022-12-23T12:50:31.171Z,96317.09
2022-12-23T12:53:21.520Z,96312.63
2022-12-23T12:56:16.044Z,96310.78
2022-12-23T12:59:03.624Z,96304.44
2022-12-23T13:02:06.606Z,96310.41
2022-12-23T13:05:16.601Z,96310.19
2022-12-23T13:08:27.803Z,96302.06
2022-12-23T13:11:45.060Z,96292.44
2022-12-23T13:14:46.679Z,96286.16
2022-12-23T13:17:46.379Z,96291.25
2022-12-23T13:20:43.337Z,96295.50
2022-12-23T13:24:03.916Z,96286.38
2022-12-23T13:27:09.925Z,96276.56
2022-12-23T13:30:02.689Z,96277.19
2022-12-23T13:33:07.215Z,96280.84
2022-12-23T13:36:13.358Z,96267.41
2022-12-23T13:39:23.560Z,96263.72
2022-12-23T13:42:23.548Z,96263.56
2022-12-23T13:45:17.364Z,96257.41
2022-12-23T13:48:22.104Z,96257.41
2022-12-23T13:51:22.824Z,96247.44
2022-12-23T13:54:23.645Z,96243.75
2022-12-23T13:57:15.505Z,96248.06
2022-12-23T14:00:24.500Z,96232.97
2022-12-23T14:03:12.728Z,96227.44
2022-12-23T14:05:59.630Z,96233.56
2022-12-23T14:08:53.767Z,96237.03
2022-12-23T14:11:44.946Z,96225.44
2022-12-23T14:14:32.018Z,96212.97
2022-12-23T14:17:28.410Z,96216.44
2022-12-23T14:20:21.758Z,96209.13
2022-12-23T14:23:17.658Z,96218.88
2022-12-23T14:26:16.017Z,96211.78
2022-12-23T14:29:35.624Z,96201.97
2022-12-23T14:32:26.710Z,96200.97
2022-12-23T14:35:23.259Z,96188.50
2022-12-23T14:38:16.063Z,96179.53
2022-12-23T14:41:22.518Z,96190.97
2022-12-23T14:44:46.334Z,96197.91
2022-12-23T14:47:35.530Z,96192.38
2022-12-23T14:50:36.464Z,96184.66
2022-12-23T14:53:25.837Z,96191.78
2022-12-23T14:56:23.164Z,96180.97
2022-12-23T14:59:13.045Z,96177.50
2022-12-23T15:02:06.066Z,96173.00
2022-12-23T15:04:57.575Z,96160.78
2022-12-23T15:07:52.453Z,96164.88
2022-12-23T15:10:39.218Z,96169.16
2022-12-23T15:13:27.733Z,96166.50
2022-12-23T15:16:16.989Z,96162.00
2022-12-23T15:19:20.018Z,96158.53
2022-12-23T15:22:20.624Z,96151.19
2022-12-23T15:25:26.365Z,96156.28
2022-12-23T15:28:18.596Z,96158.31
2022-12-23T15:31:06.237Z,96159.75
2022-12-23T15:34:03.567Z,96156.09
2022-12-23T15:36:54.612Z,96152.41
2022-12-23T15:39:46.920Z,96147.31
2022-12-23T15:42:35.526Z,96150.78
2022-12-23T15:45:34.554Z,96142.63
2022-12-23T15:48:29.451Z,96127.72
2022-12-23T15:52:05.871Z,96135.50
2022-12-23T15:55:10.479Z,96122.22
2022-12-23T15:57:58.105Z,96120.56
2022-12-23T16:00:51.871Z,96124.66
2022-12-23T16:03:43.961Z,96112.41
2022-12-23T16:06:33.145Z,96102.84
2022-12-23T16:09:19.816Z,96106.09
2022-12-23T16:12:24.580Z,96111.41
2022-12-23T16:15:27.466Z,96109.56
2022-12-23T16:18:25.809Z,96104.25
2022-12-23T16:21:13.819Z,96105.91
2022-12-23T16:24:01.246Z,96089.97
2022-12-23T16:26:48.116Z,96103.25
2022-12-23T16:29:35.119Z,96087.34
2022-12-23T16:32:22.083Z,96088.16
2022-12-23T16:35:11.789Z,96080.19
2022-12-23T16:38:13.466Z,96081.81
2022-12-23T16:41:00.352Z,96073.84
2022-12-23T16:43:51.854Z,96077.31
2022-12-23T16:46:43.220Z,96074.47
2022-12-23T16:49:33.785Z,96069.16
2022-12-23T16:52:21.315Z,96057.31
2022-12-23T16:55:15.896Z,96064.88
2022-12-23T16:58:25.004Z,96061.63
2022-12-23T17:01:17.918Z,96047.31
2022-12-23T17:04:05.924Z,96045.69
2022-12-23T17:06:52.711Z,96043.84
2022-12-23T17:09:39.473Z,96038.56
2022-12-23T17:12:28.902Z,96044.66
2022-12-23T17:15:18.913Z,96040.16
2022-12-23T17:18:14.014Z,96034.66
2022-12-23T17:21:00.830Z,96034.66
2022-12-23T17:23:48.015Z,96035.50
2022-12-23T17:26:35.211Z,96036.50
2022-12-23T17:29:22.152Z,96034.88
2022-12-23T17:32:12.960Z,96035.28
2022-12-23T17:34:59.803Z,96032.63
2022-12-23T17:37:46.621Z,96036.31
2022-12-23T17:40:33.647Z,96031.41
2022-12-23T17:43:23.291Z,96042.41
2022-12-23T17:46:22.126Z,96027.31
2022-12-23T17:49:09.376Z,96029.75
2022-12-23T17:51:56.238Z,96018.72
2022-12-23T17:54:43.810Z,96031.81
2022-12-23T17:57:34.117Z,96019.75
2022-12-23T18:01:01.680Z,96018.53
2022-12-23T18:03:52.721Z,96015.06
2022-12-23T18:06:39.527Z,96032.00
2022-12-23T18:09:28.445Z,96021.38
2022-12-23T18:12:26.984Z,96034.84
2022-12-23T18:15:30.925Z,96022.19
2022-12-23T18:18:31.216Z,96023.22
2022-12-23T18:21:26.545Z,96024.84
2022-12-23T18:24:13.612Z,96037.88
2022-12-23T18:27:02.835Z,96024.03
2022-12-23T18:29:51.372Z,96023.16
2022-12-23T18:32:40.686Z,96026.66
2022-12-23T18:35:38.277Z,96026.84
2022-12-23T18:38:25.179Z,96017.88
2022-12-23T18:41:15.062Z,96020.31
2022-12-23T18:44:01.971Z,96020.72
2022-12-23T18:46:49.475Z,96032.16
2022-12-23T18:49:44.021Z,96038.28
2022-12-23T18:52:30.823Z,96035.22
2022-12-23T18:55:20.424Z,96033.78
2022-12-23T18:58:20.332Z,96032.31
2022-12-23T19:01:16.316Z,96038.03
2022-12-23T19:04:06.033Z,96043.16
2022-12-23T19:10:05.838Z,96035.19
2022-12-23T19:12:59.543Z,96034.97
2022-12-23T19:15:51.565Z,96043.75
2022-12-23T19:18:46.312Z,96051.94
2022-12-23T19:21:38.366Z,96068.69
2022-12-23T19:24:25.400Z,96055.41
2022-12-23T19:27:12.516Z,96052.34
2022-12-23T19:29:59.726Z,96059.28
2022-12-23T19:32:48.681Z,96055.78
2022-12-23T19:35:35.672Z,96057.63
2022-12-23T19:38:38.561Z,96052.50
2022-12-23T19:41:25.706Z,96054.97
2022-12-23T19:44:19.681Z,96066.59
2022-12-23T19:47:08.932Z,96077.03
2022-12-23T19:49:56.017Z,96080.50
2022-12-23T19:52:48.205Z,96073.34
2022-12-23T19:55:37.184Z,96076.41
2022-12-23T19:58:26.355Z,96078.25
2022-12-23T20:01:24.052Z,96103.16
2022-12-23T20:04:30.414Z,96089.69
2022-12-23T20:07:17.319Z,96096.44
2022-12-23T20:10:10.321Z,96098.06
2022-12-23T20:12:59.928Z,96097.25
2022-12-23T20:15:46.805Z,96092.75
2022-12-23T20:18:34.152Z,96099.69
2022-12-23T20:21:23.876Z,96107.47
2022-12-23T20:24:10.795Z,96091.53
2022-12-23T20:26:58.277Z,96105.22
2022-12-23T20:30:05.718Z,96102.97
2022-12-23T20:32:52.706Z,96117.25
2022-12-23T20:35:44.329Z,96115.41
2022-12-23T20:38:38.149Z,96115.03
2022-12-23T20:41:38.766Z,96122.78
2022-12-23T20:44:35.696Z,96113.19
2022-12-23T20:47:31.312Z,96127.25
2022-12-23T20:50:18.352Z,96117.06
2022-12-23T20:53:13.306Z,96124.81
2022-12-23T20:56:01.519Z,96130.94
2022-12-23T20:58:54.730Z,96140.34
2022-12-23T21:01:41.996Z,96140.34
2022-12-23T21:04:30.352Z,96125.03
2022-12-23T21:07:17.333Z,96135.44
2022-12-23T21:10:13.136Z,96129.09
2022-12-23T21:13:07.225Z,96136.88
2022-12-23T21:15:54.216Z,96132.34
2022-12-23T21:18:53.264Z,96145.84
2022-12-23T21:21:40.000Z,96168.97
2022-12-23T21:24:26.995Z,96165.50
2022-12-23T21:27:13.828Z,96170.19
2022-12-23T21:30:03.647Z,96176.50
2022-12-23T21:32:51.773Z,96179.59
2022-12-23T21:35:47.673Z,96174.28
2022-12-23T21:38:39.996Z,96180.22
2022-12-23T21:41:29.057Z,96186.75
2022-12-23T21:44:18.277Z,96202.28
2022-12-23T21:47:05.187Z,96204.13
2022-12-23T21:49:52.041Z,96228.25
2022-12-23T21:52:38.967Z,96232.75
2022-12-23T21:55:31.209Z,96234.19
2022-12-23T21:58:18.035Z,96215.56
2022-12-23T22:01:13.732Z,96228.25
2022-12-23T22:04:00.774Z,96233.56
2022-12-23T22:06:55.046Z,96233.97
2022-12-23T22:09:41.874Z,96220.50
2022-12-23T22:12:28.703Z,96213.53
2022-12-23T22:15:15.530Z,96225.00
2022-12-23T22:18:04.891Z,96230.91
2022-12-23T22:20:51.703Z,96223.13
2022-12-23T22:23:44.276Z,96226.84
2022-12-23T22:26:32.734Z,96217.59
2022-12-23T22:29:22.715Z,96231.53
2022-12-23T22:32:15.639Z,96234.59
2022-12-23T22:35:02.513Z,96254.63
2022-12-23T22:37:49.367Z,96260.53
2022-12-23T22:40:36.274Z,96258.69
2022-12-23T22:43:23.378Z,96261.56
2022-12-23T22:46:10.380Z,96267.69
2022-12-23T22:49:00.551Z,96280.59
2022-12-23T22:51:47.531Z,96300.81
2022-12-23T22:54:34.417Z,96285.28
2022-12-23T22:57:25.845Z,96295.09
2022-12-23T23:00:13.171Z,96310.03
2022-12-23T23:03:00.085Z,96298.16
2022-12-23T23:06:04.089Z,96311.03
2022-12-23T23:08:50.990Z,96314.94
2022-12-23T23:11:41.528Z,96317.41
2022-12-23T23:14:29.782Z,96317.41
2022-12-23T23:17:16.651Z,96310.84
2022-12-23T23:20:03.649Z,96321.25
2022-12-23T23:22:51.087Z,96329.06
2022-12-23T23:25:38.030Z,96335.19
2022-12-23T23:28:24.908Z,96338.66
2022-12-23T23:34:18.913Z,96359.09
2022-12-23T23:37:05.833Z,96351.53
2022-12-23T23:39:55.725Z,96358.28
2022-12-23T23:42:42.665Z,96349.09
2022-12-23T23:45:30.356Z,96352.16
2022-12-23T23:48:18.042Z,96361.13
2022-12-23T23:51:09.881Z,96369.34
2022-12-23T23:53:56.668Z,96370.97
2022-12-23T23:56:43.670Z,96372.19
2022-12-23T23:59:30.477Z,96377.31
